PS53 weather

7-H Skeet Club Inc. Field
Patton, Pennsylvania, United States

Public forecast

Using degrees Fahrenheit for public forecast. Weather courtesy of forecast.io.

Closest aviation weather report (METAR) to 7-H Skeet Club Inc. Field

Closest report is John Murtha Johnstown Cambria County Airport, 22.6 nm (41.8 km) SSW. Retrieved 2019/10/21 05:54 UTC (26 minutes ago):

KJST 210554Z AUTO 22004KT M1/4SM FG VV002 08/08 A3003 RMK AO2 SLP170 T00830078 10100 20072 51006

Closest aviation forecast (TAF) to 7-H Skeet Club Inc. Field

Closest forecast is John Murtha Johnstown Cambria County Airport, 22.6 nm (41.8 km) SSW. Retrieved 2019/10/21 06:36 UTC (0 seconds ago):

TAF KJST 210532Z 2106/2206 VRB02KT 1/4SM FG VV001 FM211200 09003KT 4SM BR FEW008 SCT015 FM211600 14010G17KT P6SM SKC